Time;durP1;ratioP1;P1;durP2;ratioP2;P2;SDS_P1;SDS_P2;PMS_P1;PMS_P2;Temp;Humidity;BMP_temperature;BMP_pressure;BME280_temperature;BME280_humidity;BME280_pressure;Samples;Min_cycle;Max_cycle;Signal;HPM_P1;HPM_P2
2022/10/08 05:29:09;;;;;;;6.60;4.65;;;;;;;;;;6169048;22;19923;-83
2022/10/08 05:31:36;;;;;;;5.47;4.97;;;;;;;;;;6188540;23;20019;-83
2022/10/08 05:34:02;;;;;;;4.90;4.40;;;;;;;;;;6216590;23;19996;-84
2022/10/08 05:36:30;;;;;;;5.05;4.55;;;;;;;;;;6216052;23;19997;-83
2022/10/08 05:38:58;;;;;;;5.80;4.63;;;;;;;;;;6216181;23;20416;-83
2022/10/08 05:41:29;;;;;;;6.70;4.68;;;;;;;;;;6215878;23;20007;-83
2022/10/08 05:43:56;;;;;;;6.25;4.53;;;;;;;;;;6216411;23;20035;-83
2022/10/08 05:46:26;;;;;;;5.60;4.55;;;;;;;;;;6216261;23;20001;-83
2022/10/08 05:48:53;;;;;;;4.72;4.22;;;;;;;;;;6216090;23;20363;-83
2022/10/08 05:51:19;;;;;;;5.20;4.40;;;;;;;;;;6216460;23;20011;-84
2022/10/08 05:53:47;;;;;;;4.85;4.28;;;;;;;;;;6216023;23;20004;-83
2022/10/08 05:56:14;;;;;;;5.00;3.97;;;;;;;;;;6215920;23;20454;-84
2022/10/08 05:58:41;;;;;;;4.38;3.97;;;;;;;;;;6216069;23;19996;-84
2022/10/08 06:01:11;;;;;;;5.30;4.05;;;;;;;;;;6216071;23;20067;-82
2022/10/08 06:03:37;;;;;;;4.75;4.25;;;;;;;;;;6215997;23;20000;-83
2022/10/08 06:06:04;;;;;;;5.35;4.85;;;;;;;;;;6215841;23;20008;-86
2022/10/08 06:08:31;;;;;;;6.18;4.85;;;;;;;;;;6215950;23;20079;-83
2022/10/08 06:10:56;;;;;;;6.10;5.25;;;;;;;;;;6216007;23;20009;-84
2022/10/08 06:13:22;;;;;;;5.95;5.35;;;;;;;;;;6215935;23;20015;-89
2022/10/08 06:16:02;;;;;;;7.40;5.05;;;;;;;;;;6216219;23;20297;-85
2022/10/08 06:18:29;;;;;;;5.43;4.88;;;;;;;;;;6189297;23;20031;-85
2022/10/08 06:20:55;;;;;;;6.15;5.00;;;;;;;;;;6216381;23;20550;-87
2022/10/08 06:23:21;;;;;;;6.05;4.95;;;;;;;;;;6216523;23;20024;-84
2022/10/08 06:25:47;;;;;;;5.70;5.10;;;;;;;;;;6216262;23;20072;-83
2022/10/08 06:28:13;;;;;;;5.70;4.85;;;;;;;;;;6216200;23;20354;-87
2022/10/08 06:30:42;;;;;;;5.88;5.00;;;;;;;;;;6216558;23;20383;-81
2022/10/08 06:33:09;;;;;;;5.72;5.13;;;;;;;;;;6216112;23;20036;-84
2022/10/08 06:35:35;;;;;;;5.93;4.95;;;;;;;;;;6215979;23;20431;-84
2022/10/08 06:38:02;;;;;;;8.23;5.38;;;;;;;;;;6216789;23;20008;-87
2022/10/08 06:40:31;;;;;;;5.80;5.05;;;;;;;;;;6216068;23;20075;-86
2022/10/08 06:43:05;;;;;;;5.78;4.90;;;;;;;;;;6216253;23;20431;-85
2022/10/08 06:45:30;;;;;;;5.88;4.38;;;;;;;;;;6216019;23;20000;-88
2022/10/08 06:47:55;;;;;;;5.30;4.80;;;;;;;;;;6216235;23;20012;-85
2022/10/08 06:50:21;;;;;;;4.55;4.15;;;;;;;;;;6216023;23;20012;-84
2022/10/08 06:52:47;;;;;;;4.85;4.35;;;;;;;;;;6217062;23;20005;-84
2022/10/08 06:55:13;;;;;;;5.88;5.07;;;;;;;;;;6218151;23;20009;-86
2022/10/08 06:57:38;;;;;;;6.13;4.70;;;;;;;;;;6218219;23;20028;-82
2022/10/08 07:00:04;;;;;;;5.60;4.90;;;;;;;;;;6217982;23;20009;-82
2022/10/08 07:02:30;;;;;;;6.20;4.28;;;;;;;;;;6218369;23;20324;-87
2022/10/08 07:04:55;;;;;;;6.50;4.68;;;;;;;;;;6218176;23;20424;-81
2022/10/08 07:07:20;;;;;;;7.10;4.60;;;;;;;;;;6218533;23;20001;-88
2022/10/08 07:09:46;;;;;;;7.55;5.00;;;;;;;;;;6218407;23;20000;-84
2022/10/08 07:12:12;;;;;;;5.97;5.30;;;;;;;;;;6217791;23;20031;-81
2022/10/08 07:14:38;;;;;;;6.20;5.20;;;;;;;;;;6218774;23;20004;-84
2022/10/08 07:17:03;;;;;;;5.50;5.00;;;;;;;;;;6217971;23;20007;-82
2022/10/08 07:19:29;;;;;;;4.93;4.45;;;;;;;;;;6218568;23;20001;-94
2022/10/08 07:21:54;;;;;;;5.40;4.90;;;;;;;;;;6217447;23;20012;-84
2022/10/08 07:24:19;;;;;;;5.30;4.88;;;;;;;;;;6222411;23;20005;-87
2022/10/08 07:26:45;;;;;;;5.85;4.95;;;;;;;;;;6222624;23;20367;-84
2022/10/08 07:29:14;;;;;;;7.75;5.10;;;;;;;;;;6220801;23;20059;-83
2022/10/08 07:31:40;;;;;;;5.45;4.65;;;;;;;;;;6218489;23;20009;-79
2022/10/08 07:34:09;;;;;;;7.10;4.45;;;;;;;;;;6217952;23;20095;-85
2022/10/08 07:36:35;;;;;;;5.28;4.70;;;;;;;;;;6218051;23;20004;-79
2022/10/08 07:39:03;;;;;;;4.40;4.00;;;;;;;;;;6218046;23;20036;-84
2022/10/08 07:41:30;;;;;;;6.53;4.23;;;;;;;;;;6191237;23;20005;-83
2022/10/08 07:43:58;;;;;;;4.93;4.38;;;;;;;;;;6217977;23;20000;-84
2022/10/08 07:46:25;;;;;;;5.97;4.45;;;;;;;;;;6217973;23;20058;-82
2022/10/08 07:48:53;;;;;;;5.97;4.57;;;;;;;;;;6217822;23;20040;-84
2022/10/08 07:51:19;;;;;;;5.50;4.97;;;;;;;;;;6218273;23;20416;-83
2022/10/08 07:53:45;;;;;;;4.78;4.28;;;;;;;;;;6191264;23;20000;-80
2022/10/08 07:56:13;;;;;;;4.72;4.30;;;;;;;;;;6217777;23;20498;-83
2022/10/08 07:58:39;;;;;;;6.93;4.78;;;;;;;;;;6217882;23;20059;-82
2022/10/08 08:01:07;;;;;;;5.80;4.38;;;;;;;;;;6217701;23;20005;-84
2022/10/08 08:03:33;;;;;;;8.15;4.65;;;;;;;;;;6217725;23;20017;-81
2022/10/08 08:06:06;;;;;;;5.85;4.50;;;;;;;;;;6217732;23;20004;-82
2022/10/08 08:08:33;;;;;;;5.13;4.60;;;;;;;;;;6190957;23;20008;-82
2022/10/08 08:11:01;;;;;;;5.03;4.18;;;;;;;;;;6217703;23;20008;-81
2022/10/08 08:13:31;;;;;;;6.30;4.60;;;;;;;;;;6218239;23;20379;-86
2022/10/08 08:16:02;;;;;;;4.97;4.50;;;;;;;;;;6190727;23;20332;-81
2022/10/08 08:18:28;;;;;;;4.28;3.88;;;;;;;;;;6217583;23;20012;-84
2022/10/08 08:21:02;;;;;;;4.82;3.97;;;;;;;;;;6217182;23;20005;-83
2022/10/08 08:23:31;;;;;;;4.60;4.20;;;;;;;;;;6217289;23;20032;-85
2022/10/08 08:26:06;;;;;;;5.15;4.65;;;;;;;;;;6217615;23;20005;-83
2022/10/08 08:28:31;;;;;;;4.72;4.13;;;;;;;;;;6217410;23;20083;-85
2022/10/08 08:31:16;;;;;;;4.78;4.38;;;;;;;;;;6217885;23;20325;-84
2022/10/08 08:33:42;;;;;;;6.82;4.53;;;;;;;;;;6216862;23;20001;-78
2022/10/08 08:36:08;;;;;;;7.03;4.55;;;;;;;;;;6217136;23;20075;-80
2022/10/08 08:38:35;;;;;;;6.63;4.10;;;;;;;;;;6217134;23;20011;-86
2022/10/08 10:19:35;;;;;;;3.67;3.38;;;;;;;;;;6182606;23;20017;-87
2022/10/08 10:22:12;;;;;;;4.18;3.70;;;;;;;;;;6189568;23;20017;-88
2022/10/08 10:24:44;;;;;;;4.05;3.70;;;;;;;;;;6216025;23;20011;-81
2022/10/08 10:27:35;;;;;;;3.70;3.40;;;;;;;;;;6217187;23;20032;-79
2022/10/08 10:30:20;;;;;;;4.45;4.05;;;;;;;;;;6219042;23;20011;-82
2022/10/08 10:32:56;;;;;;;4.20;3.80;;;;;;;;;;6218639;23;20351;-80
2022/10/08 10:35:30;;;;;;;4.28;3.90;;;;;;;;;;6218449;23;20001;-82
2022/10/08 10:38:17;;;;;;;6.28;4.13;;;;;;;;;;6218920;23;20432;-83
2022/10/08 10:40:54;;;;;;;4.03;3.72;;;;;;;;;;6219122;23;20071;-80
2022/10/08 10:43:31;;;;;;;3.58;3.35;;;;;;;;;;6219006;23;20009;-79
2022/10/08 10:46:16;;;;;;;4.03;3.72;;;;;;;;;;6219586;23;20005;-82
2022/10/08 10:48:41;;;;;;;4.00;3.70;;;;;;;;;;6218178;23;20008;-85
2022/10/08 10:51:33;;;;;;;3.88;3.40;;;;;;;;;;6218105;23;20005;-82
2022/10/08 10:54:15;;;;;;;3.97;3.58;;;;;;;;;;6218247;23;20005;-83
2022/10/08 10:56:50;;;;;;;3.80;3.50;;;;;;;;;;6218216;23;20541;-85
2022/10/08 11:00:00;;;;;;;4.78;3.25;;;;;;;;;;6218042;23;20381;-84
2022/10/08 11:02:49;;;;;;;3.45;3.13;;;;;;;;;;6218761;23;20070;-85
2022/10/08 11:05:34;;;;;;;;;;;;;;;;;;6219323;23;20020;-80
2022/10/08 11:08:08;;;;;;;3.63;3.30;;;;;;;;;;6220028;23;19907;-80
2022/10/08 11:10:56;;;;;;;4.95;3.58;;;;;;;;;;6218233;23;20349;-77
2022/10/08 11:13:40;;;;;;;4.07;3.42;;;;;;;;;;6217932;23;20463;-78
2022/10/08 11:16:42;;;;;;;8.75;4.15;;;;;;;;;;6217801;23;20000;-81
2022/10/08 11:19:47;;;;;;;4.05;3.58;;;;;;;;;;6217846;23;20404;-85
2022/10/08 11:22:25;;;;;;;4.30;3.90;;;;;;;;;;6190911;23;20008;-86
2022/10/08 11:24:55;;;;;;;4.35;3.67;;;;;;;;;;6217573;23;20436;-86
2022/10/08 11:27:40;;;;;;;6.18;3.80;;;;;;;;;;6217968;23;20040;-81
2022/10/08 11:30:11;;;;;;;5.05;3.75;;;;;;;;;;6217883;23;20011;-83
2022/10/08 11:32:37;;;;;;;3.90;3.60;;;;;;;;;;6217888;23;20005;-81
2022/10/08 11:35:33;;;;;;;3.78;3.47;;;;;;;;;;6218631;23;20000;-87
2022/10/08 11:38:07;;;;;;;4.00;3.60;;;;;;;;;;6219077;23;20452;-92
2022/10/08 11:41:01;;;;;;;4.18;3.63;;;;;;;;;;6217368;23;20005;-83
2022/10/08 11:43:42;;;;;;;3.88;3.30;;;;;;;;;;6218607;23;20167;-80
2022/10/08 11:46:27;;;;;;;5.70;3.70;;;;;;;;;;6219352;23;20016;-80
2022/10/08 11:49:01;;;;;;;5.53;3.67;;;;;;;;;;6218099;23;20011;-94
2022/10/08 11:51:32;;;;;;;4.38;3.60;;;;;;;;;;6218749;23;20016;-82
2022/10/08 11:54:11;;;;;;;5.85;3.72;;;;;;;;;;6223761;23;20368;-81
2022/10/08 11:56:41;;;;;;;;;;;;;;;;;;6224717;23;20075;-82
2022/10/08 11:59:25;;;;;;;4.43;4.03;;;;;;;;;;6223779;23;20232;-84
2022/10/08 12:01:57;;;;;;;7.90;4.78;;;;;;;;;;6224207;23;20008;-81
2022/10/08 12:04:37;;;;;;;4.57;4.05;;;;;;;;;;6225471;23;20423;-81
2022/10/08 12:07:27;;;;;;;4.55;4.15;;;;;;;;;;6220999;23;20014;-82
2022/10/08 12:10:05;;;;;;;4.20;3.80;;;;;;;;;;6218144;23;20427;-85
2022/10/08 12:12:49;;;;;;;6.93;4.40;;;;;;;;;;6217724;23;20001;-88
2022/10/08 12:15:23;;;;;;;6.60;4.05;;;;;;;;;;6217745;23;20011;-81
2022/10/08 12:17:59;;;;;;;5.22;3.80;;;;;;;;;;6217801;23;20490;-81
2022/10/08 12:20:31;;;;;;;4.72;4.30;;;;;;;;;;6217160;23;20019;-81
2022/10/08 12:23:04;;;;;;;4.50;4.10;;;;;;;;;;6217334;23;20005;-82
2022/10/08 12:25:43;;;;;;;4.47;4.10;;;;;;;;;;6216992;23;20123;-85
2022/10/08 12:28:20;;;;;;;5.13;4.63;;;;;;;;;;6217564;23;20034;-83
2022/10/08 12:30:57;;;;;;;5.95;4.43;;;;;;;;;;6217280;23;20001;-83
2022/10/08 12:33:24;;;;;;;7.05;5.55;;;;;;;;;;6217190;23;20000;-85
2022/10/08 12:35:52;;;;;;;5.22;4.63;;;;;;;;;;6190395;23;20483;-83
2022/10/08 12:38:41;;;;;;;5.90;5.10;;;;;;;;;;6217509;23;20424;-83
2022/10/08 12:41:24;;;;;;;7.38;4.60;;;;;;;;;;6217196;23;20009;-83
2022/10/08 12:44:04;;;;;;;5.03;4.47;;;;;;;;;;6217118;23;20001;-84
2022/10/08 12:46:46;;;;;;;5.53;4.30;;;;;;;;;;6216923;23;20078;-83
2022/10/08 12:49:37;;;;;;;5.63;4.35;;;;;;;;;;6217124;23;20009;-83
2022/10/08 12:52:17;;;;;;;5.50;4.65;;;;;;;;;;6217455;23;20100;-88
2022/10/08 12:54:48;;;;;;;5.35;4.72;;;;;;;;;;6217090;23;20008;-83
2022/10/08 12:57:23;;;;;;;4.75;4.35;;;;;;;;;;6216961;23;20051;-83
2022/10/08 12:59:49;;;;;;;5.43;4.07;;;;;;;;;;6217224;23;20004;-89
2022/10/08 13:02:26;;;;;;;4.57;3.85;;;;;;;;;;6217001;23;20004;-83
2022/10/08 13:04:52;;;;;;;5.90;3.83;;;;;;;;;;6216848;23;20075;-83
2022/10/08 13:07:24;;;;;;;4.57;3.58;;;;;;;;;;6217085;23;20035;-88
2022/10/08 13:09:54;;;;;;;4.95;3.70;;;;;;;;;;6217016;23;20448;-86
2022/10/08 13:12:19;;;;;;;4.78;4.28;;;;;;;;;;6217740;23;20004;-83
2022/10/08 13:14:44;;;;;;;6.53;3.72;;;;;;;;;;6218230;23;20503;-84
2022/10/08 13:17:36;;;;;;;6.47;3.65;;;;;;;;;;6218930;23;20039;-83
2022/10/08 13:20:17;;;;;;;5.00;4.05;;;;;;;;;;6212547;23;20024;-84
2022/10/08 13:22:42;;;;;;;3.90;3.40;;;;;;;;;;6218040;23;20324;-83
2022/10/08 13:25:31;;;;;;;3.90;3.58;;;;;;;;;;6218809;23;20005;-83
2022/10/08 13:28:21;;;;;;;5.72;3.63;;;;;;;;;;6216796;23;20000;-84
2022/10/08 13:30:47;;;;;;;4.95;4.00;;;;;;;;;;6190112;23;20419;-84
2022/10/08 13:33:18;;;;;;;6.40;5.30;;;;;;;;;;6216529;23;20130;-87
2022/10/08 13:35:52;;;;;;;5.10;4.30;;;;;;;;;;6216913;23;20001;-84
2022/10/08 13:38:26;;;;;;;5.88;3.80;;;;;;;;;;6217266;23;20003;-83
2022/10/08 13:41:01;;;;;;;4.28;3.85;;;;;;;;;;6216888;23;20384;-83
2022/10/08 13:43:28;;;;;;;4.53;3.60;;;;;;;;;;6218035;23;20058;-86
2022/10/08 13:45:54;;;;;;;5.47;4.00;;;;;;;;;;6217169;23;20000;-85
2022/10/08 13:48:19;;;;;;;4.53;3.58;;;;;;;;;;6191135;23;20095;-85
2022/10/08 13:50:47;;;;;;;4.82;4.10;;;;;;;;;;6220956;23;20005;-85
2022/10/08 13:53:15;;;;;;;6.13;4.22;;;;;;;;;;6217058;23;20027;-84
2022/10/08 13:55:43;;;;;;;4.53;4.13;;;;;;;;;;6190343;23;20001;-86
2022/10/08 13:58:12;;;;;;;4.30;3.75;;;;;;;;;;6217144;23;20293;-86
2022/10/08 14:00:40;;;;;;;4.85;4.40;;;;;;;;;;6217139;23;20074;-89
2022/10/08 14:03:07;;;;;;;4.80;3.97;;;;;;;;;;6218000;23;20063;-83
2022/10/08 14:05:45;;;;;;;5.43;4.85;;;;;;;;;;6192133;23;20004;-85
2022/10/08 14:08:16;;;;;;;6.32;4.32;;;;;;;;;;6219727;23;20024;-83
2022/10/08 14:10:42;;;;;;;7.78;4.45;;;;;;;;;;6217203;23;20005;-83
2022/10/08 14:13:11;;;;;;;5.00;4.22;;;;;;;;;;6216849;23;20020;-83
2022/10/08 14:15:37;;;;;;;6.88;4.53;;;;;;;;;;6218552;23;20005;-83
2022/10/08 14:18:03;;;;;;;4.78;4.32;;;;;;;;;;6218851;23;20038;-83
2022/10/08 14:20:29;;;;;;;5.13;4.63;;;;;;;;;;6221135;23;20016;-83
2022/10/08 14:22:54;;;;;;;7.30;4.68;;;;;;;;;;6218520;23;20027;-82
2022/10/08 14:25:22;;;;;;;7.43;4.78;;;;;;;;;;6217052;23;20000;-83
2022/10/08 14:27:47;;;;;;;5.35;4.82;;;;;;;;;;6216714;23;20008;-83
2022/10/08 14:30:15;;;;;;;7.43;4.80;;;;;;;;;;6216465;23;20423;-83
2022/10/08 14:32:40;;;;;;;7.22;4.38;;;;;;;;;;6216192;23;20012;-84
2022/10/08 14:35:06;;;;;;;5.63;4.70;;;;;;;;;;6189501;23;20328;-81
2022/10/08 14:37:33;;;;;;;4.72;4.32;;;;;;;;;;6189856;23;20008;-82
2022/10/08 14:39:58;;;;;;;5.50;4.53;;;;;;;;;;6216168;23;20015;-82
2022/10/08 14:42:24;;;;;;;7.32;4.72;;;;;;;;;;6216331;23;20004;-85
2022/10/08 14:44:52;;;;;;;5.28;4.53;;;;;;;;;;6216202;23;20008;-81
2022/10/08 14:47:18;;;;;;;6.72;5.53;;;;;;;;;;6216133;23;20005;-82
2022/10/08 14:49:43;;;;;;;5.57;4.70;;;;;;;;;;6216029;23;20032;-82
2022/10/08 14:52:08;;;;;;;8.02;5.18;;;;;;;;;;6216263;23;20328;-83
2022/10/08 14:54:34;;;;;;;9.73;5.53;;;;;;;;;;6216175;23;20004;-81
2022/10/08 14:56:59;;;;;;;8.02;6.40;;;;;;;;;;6216316;23;20408;-82
2022/10/08 14:59:25;;;;;;;9.88;6.05;;;;;;;;;;6215945;23;20008;-82
2022/10/08 15:01:50;;;;;;;9.55;6.72;;;;;;;;;;6189579;23;20063;-82
2022/10/08 15:04:15;;;;;;;7.72;6.28;;;;;;;;;;6216423;23;20306;-82
2022/10/08 15:06:41;;;;;;;7.93;5.63;;;;;;;;;;6189448;23;20511;-82
2022/10/08 15:09:09;;;;;;;8.85;7.05;;;;;;;;;;6215897;23;20534;-80
2022/10/08 15:11:34;;;;;;;7.93;5.70;;;;;;;;;;6215849;23;20140;-79
2022/10/08 15:14:00;;;;;;;6.22;5.53;;;;;;;;;;6216985;23;20069;-79
2022/10/08 15:16:25;;;;;;;6.65;5.72;;;;;;;;;;6217506;23;20012;-83
2022/10/08 15:18:51;;;;;;;5.57;4.95;;;;;;;;;;6217479;23;20008;-89
2022/10/08 15:21:17;;;;;;;5.32;4.75;;;;;;;;;;6217744;23;20005;-82
2022/10/08 15:23:43;;;;;;;5.55;4.70;;;;;;;;;;6217436;23;20438;-84
2022/10/08 15:26:13;;;;;;;5.68;4.50;;;;;;;;;;6217481;23;20028;-82
2022/10/08 15:28:39;;;;;;;6.10;4.88;;;;;;;;;;6217609;23;20128;-81
2022/10/08 15:31:12;;;;;;;8.73;6.35;;;;;;;;;;6217632;23;20016;-82
2022/10/08 15:33:39;;;;;;;6.78;5.53;;;;;;;;;;6217663;23;20000;-81
2022/10/08 15:36:35;;;;;;;7.88;5.82;;;;;;;;;;6217345;23;20327;-83
2022/10/08 15:39:03;;;;;;;9.25;6.40;;;;;;;;;;6187512;23;20070;-82
2022/10/08 15:41:33;;;;;;;8.13;6.15;;;;;;;;;;6217718;23;20004;-86
2022/10/08 15:44:26;;;;;;;6.80;5.78;;;;;;;;;;6217603;23;20043;-84
2022/10/08 15:47:04;;;;;;;11.98;8.10;;;;;;;;;;6185704;23;20019;-88
2022/10/08 15:49:44;;;;;;;11.70;8.23;;;;;;;;;;6193754;23;20035;-83
2022/10/08 15:52:17;;;;;;;10.50;8.10;;;;;;;;;;6218781;23;20008;-84
2022/10/08 15:54:44;;;;;;;9.23;6.97;;;;;;;;;;6217950;23;20004;-85
2022/10/08 15:57:11;;;;;;;6.10;5.50;;;;;;;;;;6218167;23;20027;-84
2022/10/08 15:59:37;;;;;;;8.85;5.78;;;;;;;;;;6217739;23;19997;-84
2022/10/08 16:02:03;;;;;;;6.25;4.90;;;;;;;;;;6217611;23;20054;-83
2022/10/08 16:04:29;;;;;;;7.05;5.57;;;;;;;;;;6217516;23;20345;-82
2022/10/08 16:06:54;;;;;;;8.00;6.63;;;;;;;;;;6217425;23;20008;-86
2022/10/08 16:09:21;;;;;;;7.60;6.72;;;;;;;;;;6217292;23;20007;-81
2022/10/08 16:11:47;;;;;;;8.85;7.38;;;;;;;;;;6217247;23;20001;-79
2022/10/08 16:14:24;;;;;;;8.68;6.40;;;;;;;;;;6217180;23;20005;-80
2022/10/08 16:16:50;;;;;;;11.40;6.85;;;;;;;;;;6217011;23;20012;-83
2022/10/08 16:19:18;;;;;;;9.88;7.88;;;;;;;;;;6216876;23;20017;-83
2022/10/08 16:21:46;;;;;;;12.77;8.67;;;;;;;;;;6217449;23;20032;-83
2022/10/08 17:23:46;;;;;;;19.02;11.38;;;;;;;;;;6172767;23;20225;-86
2022/10/08 17:26:17;;;;;;;14.23;9.93;;;;;;;;;;6156821;23;20009;-86
2022/10/08 17:28:45;;;;;;;17.10;11.55;;;;;;;;;;6156852;23;20013;-85
2022/10/08 17:31:14;;;;;;;12.90;9.48;;;;;;;;;;6156391;23;20026;-91
2022/10/08 17:33:40;;;;;;;17.83;13.05;;;;;;;;;;6156904;23;20461;-85
2022/10/08 17:36:08;;;;;;;15.40;10.60;;;;;;;;;;6156764;23;20059;-84
2022/10/08 17:38:35;;;;;;;18.17;12.00;;;;;;;;;;6158653;23;20060;-86
2022/10/08 17:41:11;;;;;;;14.38;11.38;;;;;;;;;;6161022;23;20243;-86
2022/10/08 17:43:37;;;;;;;10.68;9.57;;;;;;;;;;6161915;23;20025;-83
2022/10/08 17:46:23;;;;;;;12.35;8.35;;;;;;;;;;6158258;23;20075;-85
2022/10/08 17:48:49;;;;;;;13.35;9.07;;;;;;;;;;6156337;23;20013;-87
2022/10/08 17:51:17;;;;;;;8.32;6.63;;;;;;;;;;6156153;23;19997;-91
2022/10/08 17:53:44;;;;;;;8.65;7.05;;;;;;;;;;6155641;23;20010;-87
2022/10/08 17:56:12;;;;;;;9.75;6.65;;;;;;;;;;6157432;23;19998;-91
2022/10/08 17:58:38;;;;;;;12.85;8.00;;;;;;;;;;6158170;23;20084;-95
2022/10/08 18:01:13;;;;;;;10.38;7.70;;;;;;;;;;6156475;23;20005;-94
2022/10/08 18:03:40;;;;;;;8.27;7.03;;;;;;;;;;6156334;23;20033;-91
2022/10/08 18:06:08;;;;;;;14.15;9.40;;;;;;;;;;6159186;23;20080;-94
2022/10/08 18:08:33;;;;;;;12.38;9.63;;;;;;;;;;6155973;23;20064;-85
2022/10/08 18:11:04;;;;;;;11.10;9.07;;;;;;;;;;6157138;23;20009;-87
